sensor_id;sensor_type;location;lat;lon;timestamp;pressure;altitude;pressure_sealevel;temperature;humidity
80693;BME280;70055;39.436;-77.514;2023-10-08T00:01:03;98898.01;;;12.98;37.51
80693;BME280;70055;39.436;-77.514;2023-10-08T00:03:41;98903.81;;;12.80;38.47
80693;BME280;70055;39.436;-77.514;2023-10-08T00:06:21;98908.58;;;12.91;37.29
80693;BME280;70055;39.436;-77.514;2023-10-08T00:09:00;98908.84;;;12.95;37.34
80693;BME280;70055;39.436;-77.514;2023-10-08T00:11:40;98909.71;;;13.08;36.69
80693;BME280;70055;39.436;-77.514;2023-10-08T00:14:19;98911.48;;;12.11;38.57
80693;BME280;70055;39.436;-77.514;2023-10-08T00:16:59;98915.11;;;11.96;38.35
80693;BME280;70055;39.436;-77.514;2023-10-08T00:19:36;98908.25;;;11.71;39.03
80693;BME280;70055;39.436;-77.514;2023-10-08T00:22:15;98907.43;;;11.59;38.75
80693;BME280;70055;39.436;-77.514;2023-10-08T00:24:53;98906.38;;;11.75;38.38
80693;BME280;70055;39.436;-77.514;2023-10-08T00:27:31;98908.74;;;12.34;37.93
80693;BME280;70055;39.436;-77.514;2023-10-08T00:30:11;98904.30;;;12.13;38.21
80693;BME280;70055;39.436;-77.514;2023-10-08T00:32:50;98906.50;;;12.65;38.33
80693;BME280;70055;39.436;-77.514;2023-10-08T00:35:28;98898.96;;;12.70;37.77
80693;BME280;70055;39.436;-77.514;2023-10-08T00:38:06;98897.38;;;11.75;38.91
80693;BME280;70055;39.436;-77.514;2023-10-08T00:40:44;98894.60;;;11.92;39.67
80693;BME280;70055;39.436;-77.514;2023-10-08T00:43:35;98897.39;;;11.52;39.31
80693;BME280;70055;39.436;-77.514;2023-10-08T00:46:15;98891.91;;;11.42;38.92
80693;BME280;70055;39.436;-77.514;2023-10-08T00:48:56;98908.34;;;9.75;42.27
80693;BME280;70055;39.436;-77.514;2023-10-08T00:51:36;98908.20;;;11.22;41.18
80693;BME280;70055;39.436;-77.514;2023-10-08T00:54:16;98901.25;;;11.73;38.65
80693;BME280;70055;39.436;-77.514;2023-10-08T00:56:55;98900.76;;;11.95;38.35
80693;BME280;70055;39.436;-77.514;2023-10-08T00:59:35;98903.35;;;10.88;40.60
80693;BME280;70055;39.436;-77.514;2023-10-08T01:02:14;98899.31;;;10.41;41.23
80693;BME280;70055;39.436;-77.514;2023-10-08T01:04:52;98903.78;;;10.52;42.13
80693;BME280;70055;39.436;-77.514;2023-10-08T01:07:31;98899.74;;;11.94;40.03
80693;BME280;70055;39.436;-77.514;2023-10-08T01:10:11;98906.15;;;11.16;40.52
80693;BME280;70055;39.436;-77.514;2023-10-08T01:12:49;98909.99;;;11.34;40.47
80693;BME280;70055;39.436;-77.514;2023-10-08T01:15:28;98912.17;;;11.15;40.48
80693;BME280;70055;39.436;-77.514;2023-10-08T01:18:07;98915.74;;;10.77;41.17
80693;BME280;70055;39.436;-77.514;2023-10-08T01:20:46;98905.85;;;11.43;40.75
80693;BME280;70055;39.436;-77.514;2023-10-08T01:23:25;98912.42;;;10.34;42.63
80693;BME280;70055;39.436;-77.514;2023-10-08T01:26:03;98907.49;;;11.57;40.44
80693;BME280;70055;39.436;-77.514;2023-10-08T01:28:43;98901.78;;;11.94;40.25
80693;BME280;70055;39.436;-77.514;2023-10-08T01:31:22;98907.04;;;11.69;39.96
80693;BME280;70055;39.436;-77.514;2023-10-08T01:34:00;98903.24;;;11.33;39.65
80693;BME280;70055;39.436;-77.514;2023-10-08T01:36:39;98910.50;;;10.91;41.53
80693;BME280;70055;39.436;-77.514;2023-10-08T01:39:17;98911.15;;;11.03;40.76
80693;BME280;70055;39.436;-77.514;2023-10-08T01:41:56;98913.47;;;11.07;40.54
80693;BME280;70055;39.436;-77.514;2023-10-08T01:44:35;98913.41;;;11.31;40.54
80693;BME280;70055;39.436;-77.514;2023-10-08T01:47:14;98916.65;;;10.75;42.32
80693;BME280;70055;39.436;-77.514;2023-10-08T01:49:55;98918.70;;;11.09;41.21
80693;BME280;70055;39.436;-77.514;2023-10-08T01:52:34;98917.27;;;11.46;40.43
80693;BME280;70055;39.436;-77.514;2023-10-08T01:55:14;98921.09;;;11.38;41.24
80693;BME280;70055;39.436;-77.514;2023-10-08T01:57:53;98924.01;;;10.90;41.22
80693;BME280;70055;39.436;-77.514;2023-10-08T02:00:32;98914.74;;;11.53;40.40
80693;BME280;70055;39.436;-77.514;2023-10-08T02:03:12;98912.56;;;11.83;39.91
80693;BME280;70055;39.436;-77.514;2023-10-08T02:05:51;98912.95;;;11.20;41.74
80693;BME280;70055;39.436;-77.514;2023-10-08T02:08:31;98911.84;;;11.90;40.16
80693;BME280;70055;39.436;-77.514;2023-10-08T02:11:10;98908.94;;;11.64;41.20
80693;BME280;70055;39.436;-77.514;2023-10-08T02:13:49;98905.65;;;11.56;41.47
80693;BME280;70055;39.436;-77.514;2023-10-08T02:16:28;98903.22;;;11.55;41.15
80693;BME280;70055;39.436;-77.514;2023-10-08T02:19:07;98901.85;;;10.91;42.68
80693;BME280;70055;39.436;-77.514;2023-10-08T02:21:47;98898.90;;;10.46;43.95
80693;BME280;70055;39.436;-77.514;2023-10-08T02:24:26;98895.92;;;10.55;42.14
80693;BME280;70055;39.436;-77.514;2023-10-08T02:27:04;98894.01;;;10.75;42.55
80693;BME280;70055;39.436;-77.514;2023-10-08T02:29:43;98893.77;;;10.86;42.23
80693;BME280;70055;39.436;-77.514;2023-10-08T02:32:21;98895.89;;;10.95;41.60
80693;BME280;70055;39.436;-77.514;2023-10-08T02:34:59;98895.31;;;10.53;41.71
80693;BME280;70055;39.436;-77.514;2023-10-08T02:37:39;98891.60;;;10.58;42.29
80693;BME280;70055;39.436;-77.514;2023-10-08T02:40:18;98890.22;;;10.64;42.07
80693;BME280;70055;39.436;-77.514;2023-10-08T02:42:57;98889.31;;;10.18;43.96
80693;BME280;70055;39.436;-77.514;2023-10-08T02:45:36;98893.02;;;9.12;46.73
80693;BME280;70055;39.436;-77.514;2023-10-08T02:48:16;98895.59;;;10.09;44.14
80693;BME280;70055;39.436;-77.514;2023-10-08T02:50:55;98896.03;;;10.78;43.04
80693;BME280;70055;39.436;-77.514;2023-10-08T02:53:33;98894.77;;;10.32;42.78
80693;BME280;70055;39.436;-77.514;2023-10-08T02:56:12;98893.96;;;11.02;42.22
80693;BME280;70055;39.436;-77.514;2023-10-08T02:58:50;98893.17;;;10.96;41.57
80693;BME280;70055;39.436;-77.514;2023-10-08T03:01:29;98892.21;;;10.47;42.69
80693;BME280;70055;39.436;-77.514;2023-10-08T03:04:08;98884.96;;;11.29;41.59
80693;BME280;70055;39.436;-77.514;2023-10-08T03:06:47;98872.39;;;10.44;42.30
80693;BME280;70055;39.436;-77.514;2023-10-08T03:09:28;98860.81;;;10.91;41.31
80693;BME280;70055;39.436;-77.514;2023-10-08T03:12:06;98850.47;;;10.43;43.64
80693;BME280;70055;39.436;-77.514;2023-10-08T03:14:45;98844.48;;;10.68;43.22
80693;BME280;70055;39.436;-77.514;2023-10-08T03:17:24;98845.17;;;10.80;42.54
80693;BME280;70055;39.436;-77.514;2023-10-08T03:20:02;98852.98;;;9.23;45.74
80693;BME280;70055;39.436;-77.514;2023-10-08T03:22:41;98848.34;;;10.45;43.44
80693;BME280;70055;39.436;-77.514;2023-10-08T03:25:20;98852.19;;;9.47;45.01
80693;BME280;70055;39.436;-77.514;2023-10-08T03:27:59;98841.34;;;10.28;43.83
80693;BME280;70055;39.436;-77.514;2023-10-08T03:30:37;98834.32;;;10.62;43.78
80693;BME280;70055;39.436;-77.514;2023-10-08T03:33:16;98835.17;;;9.77;45.93
80693;BME280;70055;39.436;-77.514;2023-10-08T03:35:55;98840.36;;;8.75;47.09
80693;BME280;70055;39.436;-77.514;2023-10-08T03:38:33;98833.34;;;10.13;44.82
80693;BME280;70055;39.436;-77.514;2023-10-08T03:41:12;98843.84;;;9.45;45.95
80693;BME280;70055;39.436;-77.514;2023-10-08T03:43:51;98842.88;;;10.63;42.85
80693;BME280;70055;39.436;-77.514;2023-10-08T03:46:30;98839.24;;;10.36;42.63
80693;BME280;70055;39.436;-77.514;2023-10-08T03:49:09;98839.57;;;10.06;44.57
80693;BME280;70055;39.436;-77.514;2023-10-08T03:51:47;98832.91;;;9.84;44.09
80693;BME280;70055;39.436;-77.514;2023-10-08T03:54:27;98822.98;;;10.90;41.79
80693;BME280;70055;39.436;-77.514;2023-10-08T03:57:07;98821.32;;;11.29;42.72
80693;BME280;70055;39.436;-77.514;2023-10-08T03:59:46;98819.45;;;10.42;43.53
80693;BME280;70055;39.436;-77.514;2023-10-08T04:02:24;98817.32;;;10.03;44.11
80693;BME280;70055;39.436;-77.514;2023-10-08T04:05:02;98825.28;;;8.88;46.18
80693;BME280;70055;39.436;-77.514;2023-10-08T04:07:41;98813.06;;;10.25;45.07
80693;BME280;70055;39.436;-77.514;2023-10-08T04:10:20;98821.25;;;10.24;43.75
80693;BME280;70055;39.436;-77.514;2023-10-08T04:12:59;98823.07;;;8.30;47.41
80693;BME280;70055;39.436;-77.514;2023-10-08T04:15:38;98816.40;;;9.34;46.04
80693;BME280;70055;39.436;-77.514;2023-10-08T04:18:17;98820.13;;;8.21;47.49
80693;BME280;70055;39.436;-77.514;2023-10-08T04:20:56;98811.89;;;9.88;45.03
80693;BME280;70055;39.436;-77.514;2023-10-08T04:23:36;98806.65;;;9.65;45.92
80693;BME280;70055;39.436;-77.514;2023-10-08T04:26:14;98805.00;;;9.84;46.09
80693;BME280;70055;39.436;-77.514;2023-10-08T04:28:54;98801.76;;;9.59;45.39
80693;BME280;70055;39.436;-77.514;2023-10-08T04:31:33;98799.90;;;9.69;46.12
80693;BME280;70055;39.436;-77.514;2023-10-08T04:34:12;98795.93;;;9.02;47.31
80693;BME280;70055;39.436;-77.514;2023-10-08T04:36:52;98793.67;;;9.84;45.59
80693;BME280;70055;39.436;-77.514;2023-10-08T04:39:32;98781.07;;;9.94;44.95
80693;BME280;70055;39.436;-77.514;2023-10-08T04:42:11;98783.04;;;10.08;44.41
80693;BME280;70055;39.436;-77.514;2023-10-08T04:44:50;98783.34;;;9.68;45.11
80693;BME280;70055;39.436;-77.514;2023-10-08T04:47:29;98775.63;;;10.27;44.03
80693;BME280;70055;39.436;-77.514;2023-10-08T04:50:08;98776.82;;;9.96;44.42
80693;BME280;70055;39.436;-77.514;2023-10-08T04:52:48;98784.88;;;10.31;43.95
80693;BME280;70055;39.436;-77.514;2023-10-08T04:55:26;98776.15;;;10.63;43.91
80693;BME280;70055;39.436;-77.514;2023-10-08T04:58:04;98776.60;;;10.12;43.71
80693;BME280;70055;39.436;-77.514;2023-10-08T05:00:43;98784.83;;;9.50;45.86
80693;BME280;70055;39.436;-77.514;2023-10-08T05:03:22;98778.36;;;10.49;44.22
80693;BME280;70055;39.436;-77.514;2023-10-08T05:06:00;98773.11;;;10.59;43.71
80693;BME280;70055;39.436;-77.514;2023-10-08T05:08:39;98769.85;;;10.61;43.93
80693;BME280;70055;39.436;-77.514;2023-10-08T05:11:18;98759.18;;;9.75;44.38
80693;BME280;70055;39.436;-77.514;2023-10-08T05:13:56;98751.67;;;10.02;44.52
80693;BME280;70055;39.436;-77.514;2023-10-08T05:16:35;98742.50;;;10.46;43.56
80693;BME280;70055;39.436;-77.514;2023-10-08T05:19:13;98746.80;;;9.98;44.00
80693;BME280;70055;39.436;-77.514;2023-10-08T05:21:52;98740.37;;;10.60;42.57
80693;BME280;70055;39.436;-77.514;2023-10-08T05:24:31;98741.60;;;10.52;42.94
80693;BME280;70055;39.436;-77.514;2023-10-08T05:27:10;98741.50;;;9.99;43.81
80693;BME280;70055;39.436;-77.514;2023-10-08T05:29:49;98740.98;;;9.00;46.04
80693;BME280;70055;39.436;-77.514;2023-10-08T05:32:29;98736.76;;;8.94;45.53
80693;BME280;70055;39.436;-77.514;2023-10-08T05:35:08;98726.60;;;10.43;43.16
80693;BME280;70055;39.436;-77.514;2023-10-08T05:37:48;98728.95;;;10.86;42.52
80693;BME280;70055;39.436;-77.514;2023-10-08T05:40:26;98726.31;;;10.50;42.81
80693;BME280;70055;39.436;-77.514;2023-10-08T05:43:06;98732.77;;;10.84;43.06
80693;BME280;70055;39.436;-77.514;2023-10-08T05:45:45;98737.90;;;10.78;43.77
80693;BME280;70055;39.436;-77.514;2023-10-08T05:48:25;98738.55;;;9.91;45.12
80693;BME280;70055;39.436;-77.514;2023-10-08T05:51:12;98741.06;;;9.96;45.09
80693;BME280;70055;39.436;-77.514;2023-10-08T05:53:52;98740.87;;;10.03;45.76
80693;BME280;70055;39.436;-77.514;2023-10-08T05:56:30;98740.84;;;10.00;44.77
80693;BME280;70055;39.436;-77.514;2023-10-08T05:59:10;98730.75;;;10.61;44.25
80693;BME280;70055;39.436;-77.514;2023-10-08T06:01:49;98726.00;;;9.74;45.05
80693;BME280;70055;39.436;-77.514;2023-10-08T06:04:28;98723.47;;;9.10;46.04
80693;BME280;70055;39.436;-77.514;2023-10-08T06:07:07;98720.80;;;9.49;45.84
80693;BME280;70055;39.436;-77.514;2023-10-08T06:09:46;98718.12;;;9.94;45.91
80693;BME280;70055;39.436;-77.514;2023-10-08T06:12:25;98720.27;;;9.41;47.35
80693;BME280;70055;39.436;-77.514;2023-10-08T06:15:04;98718.35;;;9.52;46.48
80693;BME280;70055;39.436;-77.514;2023-10-08T06:17:44;98708.23;;;9.59;45.31
80693;BME280;70055;39.436;-77.514;2023-10-08T06:20:23;98705.75;;;9.79;45.95
80693;BME280;70055;39.436;-77.514;2023-10-08T06:23:02;98702.79;;;9.99;44.72
80693;BME280;70055;39.436;-77.514;2023-10-08T06:25:41;98712.03;;;9.23;47.17
80693;BME280;70055;39.436;-77.514;2023-10-08T06:28:21;98704.60;;;9.73;45.47
80693;BME280;70055;39.436;-77.514;2023-10-08T06:31:01;98701.09;;;10.28;44.33
80693;BME280;70055;39.436;-77.514;2023-10-08T06:33:40;98690.74;;;10.49;43.38
80693;BME280;70055;39.436;-77.514;2023-10-08T06:36:19;98684.23;;;10.34;43.61
80693;BME280;70055;39.436;-77.514;2023-10-08T06:38:59;98681.89;;;11.07;43.26
80693;BME280;70055;39.436;-77.514;2023-10-08T06:41:38;98677.84;;;10.26;43.73
80693;BME280;70055;39.436;-77.514;2023-10-08T06:44:18;98675.22;;;10.28;44.44
80693;BME280;70055;39.436;-77.514;2023-10-08T06:46:56;98671.90;;;10.08;45.27
80693;BME280;70055;39.436;-77.514;2023-10-08T06:49:35;98676.47;;;10.21;44.49
80693;BME280;70055;39.436;-77.514;2023-10-08T06:52:15;98679.53;;;10.59;43.17
80693;BME280;70055;39.436;-77.514;2023-10-08T06:54:54;98685.98;;;10.00;43.62
80693;BME280;70055;39.436;-77.514;2023-10-08T06:57:32;98680.57;;;10.75;42.93
80693;BME280;70055;39.436;-77.514;2023-10-08T07:00:13;98686.39;;;9.61;44.91
80693;BME280;70055;39.436;-77.514;2023-10-08T07:02:52;98677.33;;;10.24;44.51
80693;BME280;70055;39.436;-77.514;2023-10-08T07:05:33;98669.31;;;9.43;46.42
80693;BME280;70055;39.436;-77.514;2023-10-08T07:08:12;98665.36;;;9.40;46.03
80693;BME280;70055;39.436;-77.514;2023-10-08T07:10:51;98659.90;;;9.57;45.47
80693;BME280;70055;39.436;-77.514;2023-10-08T07:13:31;98655.60;;;9.80;44.65
80693;BME280;70055;39.436;-77.514;2023-10-08T07:16:11;98661.16;;;9.86;44.68
80693;BME280;70055;39.436;-77.514;2023-10-08T07:18:51;98667.24;;;10.15;44.17
80693;BME280;70055;39.436;-77.514;2023-10-08T07:21:30;98661.31;;;10.29;44.47
80693;BME280;70055;39.436;-77.514;2023-10-08T07:24:08;98667.56;;;10.23;44.23
80693;BME280;70055;39.436;-77.514;2023-10-08T07:26:47;98670.48;;;10.93;43.35
80693;BME280;70055;39.436;-77.514;2023-10-08T07:29:26;98669.01;;;10.37;44.54
80693;BME280;70055;39.436;-77.514;2023-10-08T07:32:05;98670.52;;;9.38;45.84
80693;BME280;70055;39.436;-77.514;2023-10-08T07:34:45;98664.95;;;9.59;46.04
80693;BME280;70055;39.436;-77.514;2023-10-08T07:37:24;98659.00;;;10.69;44.45
80693;BME280;70055;39.436;-77.514;2023-10-08T07:40:03;98667.47;;;8.53;48.14
80693;BME280;70055;39.436;-77.514;2023-10-08T07:42:41;98659.75;;;9.83;45.94
80693;BME280;70055;39.436;-77.514;2023-10-08T07:45:20;98654.36;;;9.72;46.17
80693;BME280;70055;39.436;-77.514;2023-10-08T07:47:59;98644.87;;;9.79;46.01
80693;BME280;70055;39.436;-77.514;2023-10-08T07:50:40;98639.07;;;9.62;46.79
80693;BME280;70055;39.436;-77.514;2023-10-08T07:53:20;98640.38;;;10.13;45.86
80693;BME280;70055;39.436;-77.514;2023-10-08T07:55:58;98640.45;;;9.86;45.98
80693;BME280;70055;39.436;-77.514;2023-10-08T07:58:39;98650.70;;;10.45;44.48
80693;BME280;70055;39.436;-77.514;2023-10-08T08:01:18;98653.89;;;9.34;45.31
80693;BME280;70055;39.436;-77.514;2023-10-08T08:03:56;98652.24;;;10.13;45.55
80693;BME280;70055;39.436;-77.514;2023-10-08T08:06:36;98655.59;;;9.24;47.79
80693;BME280;70055;39.436;-77.514;2023-10-08T08:09:15;98646.98;;;10.00;46.09
80693;BME280;70055;39.436;-77.514;2023-10-08T08:11:55;98656.22;;;8.83;47.57
80693;BME280;70055;39.436;-77.514;2023-10-08T08:14:33;98653.26;;;10.23;44.54
80693;BME280;70055;39.436;-77.514;2023-10-08T08:17:12;98653.93;;;9.83;44.76
80693;BME280;70055;39.436;-77.514;2023-10-08T08:19:51;98660.95;;;9.21;45.34
80693;BME280;70055;39.436;-77.514;2023-10-08T08:22:31;98665.36;;;9.58;45.10
80693;BME280;70055;39.436;-77.514;2023-10-08T08:25:10;98671.71;;;9.78;44.83
80693;BME280;70055;39.436;-77.514;2023-10-08T08:27:49;98672.54;;;10.70;43.88
80693;BME280;70055;39.436;-77.514;2023-10-08T08:30:27;98673.17;;;10.21;44.12
80693;BME280;70055;39.436;-77.514;2023-10-08T08:33:07;98670.13;;;10.72;43.69
80693;BME280;70055;39.436;-77.514;2023-10-08T08:35:47;98668.96;;;10.38;43.61
80693;BME280;70055;39.436;-77.514;2023-10-08T08:38:26;98662.48;;;10.07;44.93
80693;BME280;70055;39.436;-77.514;2023-10-08T08:41:08;98660.69;;;9.23;46.25
80693;BME280;70055;39.436;-77.514;2023-10-08T08:43:49;98654.23;;;9.60;46.22
80693;BME280;70055;39.436;-77.514;2023-10-08T08:46:30;98658.08;;;10.23;45.08
80693;BME280;70055;39.436;-77.514;2023-10-08T08:49:10;98659.17;;;10.25;44.64
80693;BME280;70055;39.436;-77.514;2023-10-08T08:51:49;98661.40;;;10.84;43.76
80693;BME280;70055;39.436;-77.514;2023-10-08T08:54:28;98666.15;;;10.09;44.59
80693;BME280;70055;39.436;-77.514;2023-10-08T08:57:09;98664.75;;;10.96;42.97
80693;BME280;70055;39.436;-77.514;2023-10-08T08:59:52;98667.89;;;11.03;42.59
80693;BME280;70055;39.436;-77.514;2023-10-08T09:02:36;98666.16;;;10.80;43.26
80693;BME280;70055;39.436;-77.514;2023-10-08T09:05:15;98661.92;;;11.12;42.84
80693;BME280;70055;39.436;-77.514;2023-10-08T09:08:03;98664.21;;;11.08;42.82
80693;BME280;70055;39.436;-77.514;2023-10-08T09:10:43;98663.08;;;11.19;43.20
80693;BME280;70055;39.436;-77.514;2023-10-08T09:13:24;98670.42;;;11.56;43.00
80693;BME280;70055;39.436;-77.514;2023-10-08T09:16:11;98665.70;;;11.08;43.03
80693;BME280;70055;39.436;-77.514;2023-10-08T09:18:50;98666.30;;;11.31;42.83
80693;BME280;70055;39.436;-77.514;2023-10-08T09:21:28;98661.81;;;11.67;41.22
80693;BME280;70055;39.436;-77.514;2023-10-08T09:24:08;98655.07;;;11.43;41.74
80693;BME280;70055;39.436;-77.514;2023-10-08T09:26:52;98658.16;;;11.63;42.04
80693;BME280;70055;39.436;-77.514;2023-10-08T09:29:31;98656.34;;;11.15;42.19
80693;BME280;70055;39.436;-77.514;2023-10-08T09:32:11;98653.85;;;11.58;41.94
80693;BME280;70055;39.436;-77.514;2023-10-08T09:34:50;98647.36;;;11.21;41.15
80693;BME280;70055;39.436;-77.514;2023-10-08T09:37:29;98647.41;;;11.97;40.25
80693;BME280;70055;39.436;-77.514;2023-10-08T09:40:09;98652.31;;;11.87;41.18
80693;BME280;70055;39.436;-77.514;2023-10-08T09:42:49;98654.19;;;11.85;40.64
80693;BME280;70055;39.436;-77.514;2023-10-08T09:45:28;98650.68;;;11.53;41.50
80693;BME280;70055;39.436;-77.514;2023-10-08T09:48:10;98656.19;;;11.86;40.64
80693;BME280;70055;39.436;-77.514;2023-10-08T09:50:49;98652.98;;;11.68;40.45
80693;BME280;70055;39.436;-77.514;2023-10-08T09:53:36;98657.90;;;11.82;40.53
80693;BME280;70055;39.436;-77.514;2023-10-08T09:56:20;98663.98;;;12.05;40.21
80693;BME280;70055;39.436;-77.514;2023-10-08T09:58:59;98674.05;;;11.57;40.83
80693;BME280;70055;39.436;-77.514;2023-10-08T10:01:39;98674.95;;;11.66;40.91
80693;BME280;70055;39.436;-77.514;2023-10-08T10:04:29;98675.63;;;11.82;40.65
80693;BME280;70055;39.436;-77.514;2023-10-08T10:07:19;98675.56;;;12.00;40.70
80693;BME280;70055;39.436;-77.514;2023-10-08T10:09:57;98682.76;;;12.48;40.44
80693;BME280;70055;39.436;-77.514;2023-10-08T10:12:36;98689.33;;;11.34;41.60
80693;BME280;70055;39.436;-77.514;2023-10-08T10:15:15;98688.26;;;12.16;40.55
80693;BME280;70055;39.436;-77.514;2023-10-08T10:17:59;98690.88;;;11.29;42.34
80693;BME280;70055;39.436;-77.514;2023-10-08T10:20:51;98691.33;;;11.33;42.01
80693;BME280;70055;39.436;-77.514;2023-10-08T10:23:46;98686.79;;;11.95;40.27
80693;BME280;70055;39.436;-77.514;2023-10-08T10:26:30;98683.59;;;11.88;40.52
80693;BME280;70055;39.436;-77.514;2023-10-08T10:29:27;98686.47;;;12.17;40.11
80693;BME280;70055;39.436;-77.514;2023-10-08T10:32:05;98686.48;;;12.25;39.64
80693;BME280;70055;39.436;-77.514;2023-10-08T10:34:45;98697.55;;;11.68;41.23
80693;BME280;70055;39.436;-77.514;2023-10-08T10:37:25;98699.10;;;12.04;40.72
80693;BME280;70055;39.436;-77.514;2023-10-08T10:40:04;98700.95;;;12.24;40.01
80693;BME280;70055;39.436;-77.514;2023-10-08T10:42:47;98697.84;;;12.61;39.46
80693;BME280;70055;39.436;-77.514;2023-10-08T10:45:28;98693.83;;;11.87;40.84
80693;BME280;70055;39.436;-77.514;2023-10-08T10:48:07;98690.82;;;12.42;39.95
80693;BME280;70055;39.436;-77.514;2023-10-08T10:50:46;98689.84;;;12.02;40.35
80693;BME280;70055;39.436;-77.514;2023-10-08T10:53:25;98689.52;;;12.15;41.28
80693;BME280;70055;39.436;-77.514;2023-10-08T10:56:04;98684.88;;;12.36;40.64
80693;BME280;70055;39.436;-77.514;2023-10-08T10:58:42;98680.55;;;12.40;39.41
80693;BME280;70055;39.436;-77.514;2023-10-08T11:01:23;98679.02;;;12.30;40.33
80693;BME280;70055;39.436;-77.514;2023-10-08T11:04:03;98677.47;;;11.74;40.15
80693;BME280;70055;39.436;-77.514;2023-10-08T11:06:45;98682.12;;;10.73;42.20
80693;BME280;70055;39.436;-77.514;2023-10-08T11:09:25;98688.94;;;10.92;42.39
80693;BME280;70055;39.436;-77.514;2023-10-08T11:12:04;98687.62;;;10.67;42.36
80693;BME280;70055;39.436;-77.514;2023-10-08T11:14:46;98691.28;;;11.44;41.68
80693;BME280;70055;39.436;-77.514;2023-10-08T11:17:29;98691.58;;;10.89;43.08
80693;BME280;70055;39.436;-77.514;2023-10-08T11:20:28;98692.64;;;10.94;42.58
80693;BME280;70055;39.436;-77.514;2023-10-08T11:23:06;98693.23;;;10.65;44.13
80693;BME280;70055;39.436;-77.514;2023-10-08T11:25:53;98689.06;;;11.82;41.85
80693;BME280;70055;39.436;-77.514;2023-10-08T11:28:32;98687.52;;;12.24;40.44
80693;BME280;70055;39.436;-77.514;2023-10-08T11:33:22;98687.06;;;12.43;41.29
80693;BME280;70055;39.436;-77.514;2023-10-08T11:36:01;98683.47;;;11.76;40.97
80693;BME280;70055;39.436;-77.514;2023-10-08T11:38:48;98689.76;;;11.59;41.03
80693;BME280;70055;39.436;-77.514;2023-10-08T11:41:27;98688.37;;;11.61;40.73
80693;BME280;70055;39.436;-77.514;2023-10-08T11:44:08;98692.02;;;11.89;40.71
80693;BME280;70055;39.436;-77.514;2023-10-08T11:46:46;98695.90;;;12.18;40.59
80693;BME280;70055;39.436;-77.514;2023-10-08T11:49:25;98700.04;;;11.54;42.21
80693;BME280;70055;39.436;-77.514;2023-10-08T11:52:05;98699.02;;;11.83;40.74
80693;BME280;70055;39.436;-77.514;2023-10-08T11:54:43;98702.40;;;12.10;41.19
80693;BME280;70055;39.436;-77.514;2023-10-08T11:57:22;98707.53;;;11.90;41.58
80693;BME280;70055;39.436;-77.514;2023-10-08T12:00:01;98715.05;;;11.64;41.41
80693;BME280;70055;39.436;-77.514;2023-10-08T12:02:39;98715.31;;;12.05;40.84
80693;BME280;70055;39.436;-77.514;2023-10-08T12:05:18;98718.18;;;12.55;40.86
80693;BME280;70055;39.436;-77.514;2023-10-08T12:08:01;98724.04;;;12.42;41.53
80693;BME280;70055;39.436;-77.514;2023-10-08T12:10:40;98727.72;;;12.77;39.39
80693;BME280;70055;39.436;-77.514;2023-10-08T12:13:18;98728.01;;;13.83;38.62
80693;BME280;70055;39.436;-77.514;2023-10-08T12:15:57;98735.57;;;13.29;38.36
80693;BME280;70055;39.436;-77.514;2023-10-08T12:18:35;98736.40;;;13.11;38.18
80693;BME280;70055;39.436;-77.514;2023-10-08T12:21:15;98737.49;;;13.12;38.33
80693;BME280;70055;39.436;-77.514;2023-10-08T12:23:56;98738.93;;;12.54;39.54
80693;BME280;70055;39.436;-77.514;2023-10-08T12:26:34;98738.87;;;13.54;38.19
80693;BME280;70055;39.436;-77.514;2023-10-08T12:29:14;98741.45;;;13.64;37.42
80693;BME280;70055;39.436;-77.514;2023-10-08T12:31:54;98745.37;;;13.49;37.44
80693;BME280;70055;39.436;-77.514;2023-10-08T12:34:32;98744.19;;;13.18;38.75
80693;BME280;70055;39.436;-77.514;2023-10-08T12:37:11;98742.45;;;13.25;39.21
80693;BME280;70055;39.436;-77.514;2023-10-08T12:39:51;98742.38;;;13.04;38.06
80693;BME280;70055;39.436;-77.514;2023-10-08T12:42:30;98744.27;;;13.75;39.26
80693;BME280;70055;39.436;-77.514;2023-10-08T12:45:09;98736.62;;;14.06;38.13
80693;BME280;70055;39.436;-77.514;2023-10-08T12:47:48;98733.76;;;15.13;35.73
80693;BME280;70055;39.436;-77.514;2023-10-08T12:50:27;98733.85;;;15.59;35.38
80693;BME280;70055;39.436;-77.514;2023-10-08T12:53:06;98734.57;;;15.56;35.87
80693;BME280;70055;39.436;-77.514;2023-10-08T12:55:46;98732.63;;;15.66;34.33
80693;BME280;70055;39.436;-77.514;2023-10-08T12:58:24;98736.59;;;15.60;35.82
80693;BME280;70055;39.436;-77.514;2023-10-08T13:01:03;98731.56;;;16.26;32.92
80693;BME280;70055;39.436;-77.514;2023-10-08T13:03:41;98729.12;;;14.68;34.97
80693;BME280;70055;39.436;-77.514;2023-10-08T13:06:21;98735.32;;;15.97;32.79
80693;BME280;70055;39.436;-77.514;2023-10-08T13:09:01;98745.16;;;13.62;35.56
80693;BME280;70055;39.436;-77.514;2023-10-08T13:11:40;98741.78;;;14.95;34.30
80693;BME280;70055;39.436;-77.514;2023-10-08T13:14:19;98741.66;;;15.78;34.15
80693;BME280;70055;39.436;-77.514;2023-10-08T13:16:59;98744.04;;;15.28;33.48
80693;BME280;70055;39.436;-77.514;2023-10-08T13:19:38;98737.00;;;14.93;35.47
80693;BME280;70055;39.436;-77.514;2023-10-08T13:22:17;98739.27;;;15.13;34.47
80693;BME280;70055;39.436;-77.514;2023-10-08T13:24:56;98737.98;;;14.97;35.17
80693;BME280;70055;39.436;-77.514;2023-10-08T13:27:35;98744.66;;;14.56;36.23
80693;BME280;70055;39.436;-77.514;2023-10-08T13:30:13;98746.91;;;14.49;37.02
80693;BME280;70055;39.436;-77.514;2023-10-08T13:32:53;98744.96;;;14.48;35.33
80693;BME280;70055;39.436;-77.514;2023-10-08T13:35:31;98754.20;;;12.74;38.35
80693;BME280;70055;39.436;-77.514;2023-10-08T13:38:10;98761.73;;;12.98;38.25
80693;BME280;70055;39.436;-77.514;2023-10-08T13:40:49;98756.73;;;12.55;38.13
80693;BME280;70055;39.436;-77.514;2023-10-08T13:43:29;98759.81;;;12.86;39.35
80693;BME280;70055;39.436;-77.514;2023-10-08T13:46:10;98766.17;;;12.60;38.53
80693;BME280;70055;39.436;-77.514;2023-10-08T13:48:48;98765.85;;;13.18;38.39